createdAt,value
2023-01-29T00:00:42.067Z,1029.35
2023-01-29T00:02:03.882Z,1029.34
2023-01-29T00:02:42.109Z,1029.37
2023-01-29T00:03:42.371Z,1029.32
2023-01-29T00:04:42.204Z,1029.32
2023-01-29T00:05:42.372Z,1029.27
2023-01-29T00:06:42.204Z,1029.26
2023-01-29T00:07:42.375Z,1029.25
2023-01-29T00:08:42.146Z,1029.24
2023-01-29T00:09:41.890Z,1029.26
2023-01-29T00:10:42.149Z,1029.31
2023-01-29T00:12:03.861Z,1029.30
2023-01-29T00:12:42.202Z,1029.31
2023-01-29T00:13:41.941Z,1029.31
2023-01-29T00:14:42.246Z,1029.32
2023-01-29T00:15:42.052Z,1029.24
2023-01-29T00:16:42.380Z,1029.20
2023-01-29T00:17:42.171Z,1029.19
2023-01-29T00:18:42.292Z,1029.21
2023-01-29T00:19:42.010Z,1029.19
2023-01-29T00:20:42.222Z,1029.21
2023-01-29T00:22:02.607Z,1029.17
2023-01-29T00:22:41.778Z,1029.16
2023-01-29T00:23:42.100Z,1029.18
2023-01-29T00:24:41.766Z,1029.19
2023-01-29T00:25:43.459Z,1029.14
2023-01-29T00:26:41.789Z,1029.17
2023-01-29T00:27:43.023Z,1029.11
2023-01-29T00:28:43.220Z,1029.10
2023-01-29T00:29:42.080Z,1029.07
2023-01-29T00:30:41.798Z,1029.06
2023-01-29T00:32:04.585Z,1029.12
2023-01-29T00:32:42.232Z,1029.12
2023-01-29T00:33:41.926Z,1029.10
2023-01-29T00:34:43.101Z,1029.11
2023-01-29T00:35:41.921Z,1029.08
2023-01-29T00:36:41.674Z,1029.09
2023-01-29T00:37:41.925Z,1029.09
2023-01-29T00:38:41.680Z,1029.15
2023-01-29T00:39:48.153Z,1029.17
2023-01-29T00:40:44.144Z,1029.15
2023-01-29T00:42:03.466Z,1029.12
2023-01-29T00:42:41.783Z,1029.10
2023-01-29T00:43:42.074Z,1029.09
2023-01-29T00:44:41.801Z,1029.10
2023-01-29T00:45:42.174Z,1029.14
2023-01-29T00:46:41.857Z,1029.11
2023-01-29T00:47:41.569Z,1029.10
2023-01-29T00:48:41.793Z,1029.06
2023-01-29T00:49:41.557Z,1029.08
2023-01-29T00:50:41.809Z,1029.10
2023-01-29T00:52:02.629Z,1029.03
2023-01-29T00:52:41.889Z,1029.00
2023-01-29T00:53:41.663Z,1028.99
2023-01-29T00:54:42.851Z,1028.98
2023-01-29T00:55:41.683Z,1028.97
2023-01-29T00:56:41.428Z,1028.92
2023-01-29T00:57:41.697Z,1028.91
2023-01-29T00:58:41.453Z,1028.84
2023-01-29T00:59:41.686Z,1028.87
2023-01-29T01:00:41.518Z,1028.80
2023-01-29T01:02:03.284Z,1028.80
2023-01-29T01:02:41.497Z,1028.75
2023-01-29T01:03:42.120Z,1028.74
2023-01-29T01:04:43.062Z,1028.72
2023-01-29T01:05:42.850Z,1028.73
2023-01-29T01:06:43.183Z,1028.74
2023-01-29T01:07:43.012Z,1028.71
2023-01-29T01:08:41.840Z,1028.75
2023-01-29T01:09:41.756Z,1028.70
2023-01-29T01:10:42.948Z,1028.73
2023-01-29T01:12:01.810Z,1028.68
2023-01-29T01:12:42.642Z,1028.71
2023-01-29T01:13:42.452Z,1028.71
2023-01-29T01:14:43.219Z,1028.79
2023-01-29T01:15:42.116Z,1028.76
2023-01-29T01:16:42.817Z,1028.67
2023-01-29T01:17:42.711Z,1028.70
2023-01-29T01:18:42.503Z,1028.65
2023-01-29T01:19:42.711Z,1028.63
2023-01-29T01:20:42.215Z,1028.66
2023-01-29T01:22:01.295Z,1028.70
2023-01-29T01:22:43.008Z,1028.73
2023-01-29T01:23:42.812Z,1028.74
2023-01-29T01:24:42.844Z,1028.72
2023-01-29T01:25:42.983Z,1028.67
2023-01-29T01:26:41.307Z,1028.70
2023-01-29T01:27:42.127Z,1028.70
2023-01-29T01:28:42.446Z,1028.70
2023-01-29T01:29:42.696Z,1028.71
2023-01-29T01:30:41.544Z,1028.72
2023-01-29T01:32:01.342Z,1028.75
2023-01-29T01:32:42.558Z,1028.76
2023-01-29T01:33:42.126Z,1028.77
2023-01-29T01:34:42.632Z,1028.76
2023-01-29T01:35:42.858Z,1028.72
2023-01-29T01:36:42.681Z,1028.73
2023-01-29T01:37:42.972Z,1028.68
2023-01-29T01:38:42.274Z,1028.68
2023-01-29T01:39:41.366Z,1028.73
2023-01-29T01:40:42.949Z,1028.68
2023-01-29T01:42:01.284Z,1028.74
2023-01-29T01:42:41.710Z,1028.76
2023-01-29T01:43:42.783Z,1028.79
2023-01-29T01:44:41.122Z,1028.72
2023-01-29T01:45:42.475Z,1028.75
2023-01-29T01:46:42.652Z,1028.76
2023-01-29T01:47:41.094Z,1028.80
2023-01-29T01:48:42.792Z,1028.79
2023-01-29T01:49:42.643Z,1028.86
2023-01-29T01:50:41.625Z,1028.93
2023-01-29T01:52:01.165Z,1028.90
2023-01-29T01:52:42.431Z,1028.90
2023-01-29T01:53:42.762Z,1028.88
2023-01-29T01:54:41.980Z,1028.93
2023-01-29T01:55:41.480Z,1028.90
2023-01-29T01:56:42.817Z,1028.87
2023-01-29T01:57:41.964Z,1028.85
2023-01-29T01:58:41.448Z,1028.81
2023-01-29T01:59:42.609Z,1028.78
2023-01-29T02:00:42.409Z,1028.80
2023-01-29T02:02:01.255Z,1028.81
2023-01-29T02:02:42.539Z,1028.80
2023-01-29T02:03:42.766Z,1028.79
2023-01-29T02:04:42.541Z,1028.83
2023-01-29T02:05:42.298Z,1028.80
2023-01-29T02:06:42.592Z,1028.80
2023-01-29T02:07:41.650Z,1028.76
2023-01-29T02:08:42.855Z,1028.77
2023-01-29T02:09:42.601Z,1028.79
2023-01-29T02:10:41.497Z,1028.85
2023-01-29T02:12:01.079Z,1028.93
2023-01-29T02:12:41.639Z,1028.90
2023-01-29T02:13:42.602Z,1028.97
2023-01-29T02:14:42.401Z,1028.98
2023-01-29T02:15:42.187Z,1028.97
2023-01-29T02:16:42.463Z,1029.00
2023-01-29T02:17:41.809Z,1029.04
2023-01-29T02:18:41.640Z,1029.00
2023-01-29T02:19:42.374Z,1029.00
2023-01-29T02:20:42.173Z,1029.00
2023-01-29T02:22:00.991Z,1029.01
2023-01-29T02:22:41.322Z,1029.00
2023-01-29T02:23:41.684Z,1029.01
2023-01-29T02:24:41.692Z,1029.00
2023-01-29T02:25:42.606Z,1029.01
2023-01-29T02:26:42.432Z,1028.98
2023-01-29T02:27:42.194Z,1028.98
2023-01-29T02:28:41.996Z,1028.96
2023-01-29T02:29:41.643Z,1028.96
2023-01-29T02:30:42.146Z,1028.96
2023-01-29T02:32:01.010Z,1029.02
2023-01-29T02:32:42.154Z,1029.06
2023-01-29T02:33:41.654Z,1029.07
2023-01-29T02:34:42.240Z,1029.13
2023-01-29T02:35:40.652Z,1029.05
2023-01-29T02:36:41.653Z,1029.06
2023-01-29T02:37:42.092Z,1029.08
2023-01-29T02:38:42.363Z,1029.06
2023-01-29T02:39:42.173Z,1029.03
2023-01-29T02:40:41.968Z,1029.07
2023-01-29T02:42:00.755Z,1029.04
2023-01-29T02:42:40.757Z,1029.04
2023-01-29T02:43:41.932Z,1029.04
2023-01-29T02:44:42.205Z,1029.03
2023-01-29T02:45:42.064Z,1029.03
2023-01-29T02:46:42.277Z,1029.00
2023-01-29T02:47:41.159Z,1029.04
2023-01-29T02:48:40.420Z,1028.99
2023-01-29T02:49:42.186Z,1028.97
2023-01-29T02:50:41.981Z,1028.96
2023-01-29T02:52:00.812Z,1028.88
2023-01-29T02:52:42.008Z,1028.97
2023-01-29T02:53:41.150Z,1028.98
2023-01-29T02:54:42.066Z,1028.95
2023-01-29T02:55:41.887Z,1028.95
2023-01-29T02:56:42.148Z,1028.94
2023-01-29T02:57:41.934Z,1028.96
2023-01-29T02:58:42.319Z,1028.93
2023-01-29T02:59:41.157Z,1028.93
2023-01-29T03:00:41.983Z,1028.95
2023-01-29T03:02:00.798Z,1028.90
2023-01-29T03:02:41.936Z,1028.89
2023-01-29T03:03:41.273Z,1028.89
2023-01-29T03:04:42.073Z,1028.86
2023-01-29T03:05:41.176Z,1028.85
2023-01-29T03:06:42.119Z,1028.89
2023-01-29T03:07:41.906Z,1028.89
2023-01-29T03:08:41.692Z,1028.89
2023-01-29T03:09:41.999Z,1028.85
2023-01-29T03:10:41.773Z,1028.87
2023-01-29T03:12:00.611Z,1028.86
2023-01-29T03:12:41.821Z,1028.86
2023-01-29T03:13:40.537Z,1028.86
2023-01-29T03:14:42.045Z,1028.91
2023-01-29T03:15:41.866Z,1028.91
2023-01-29T03:16:40.951Z,1028.87
2023-01-29T03:17:41.177Z,1028.85
2023-01-29T03:18:41.759Z,1028.89
2023-01-29T03:19:41.153Z,1028.89
2023-01-29T03:20:40.531Z,1028.89
2023-01-29T03:22:00.311Z,1028.87
2023-01-29T03:22:42.015Z,1028.92
2023-01-29T03:23:41.178Z,1028.87
2023-01-29T03:24:41.683Z,1028.90
2023-01-29T03:25:41.054Z,1028.89
2023-01-29T03:26:41.893Z,1028.86
2023-01-29T03:27:41.744Z,1028.88
2023-01-29T03:28:40.146Z,1028.86
2023-01-29T03:29:41.295Z,1028.80
2023-01-29T03:30:41.283Z,1028.82
2023-01-29T03:32:00.223Z,1028.79
2023-01-29T03:32:41.952Z,1028.75
2023-01-29T03:33:41.285Z,1028.80
2023-01-29T03:34:40.685Z,1028.86
2023-01-29T03:35:41.934Z,1028.82
2023-01-29T03:36:41.255Z,1028.78
2023-01-29T03:37:41.590Z,1028.83
2023-01-29T03:38:41.409Z,1028.75
2023-01-29T03:39:40.332Z,1028.78
2023-01-29T03:40:40.677Z,1028.69
2023-01-29T03:41:59.943Z,1028.72
2023-01-29T03:42:41.239Z,1028.70
2023-01-29T03:43:41.064Z,1028.67
2023-01-29T03:44:41.367Z,1028.73
2023-01-29T03:45:40.447Z,1028.71
2023-01-29T03:46:40.677Z,1028.75
2023-01-29T03:47:41.407Z,1028.74
2023-01-29T03:48:41.689Z,1028.73
2023-01-29T03:49:40.717Z,1028.74
2023-01-29T03:50:41.366Z,1028.73
2023-01-29T03:52:00.266Z,1028.64
2023-01-29T03:52:41.015Z,1028.67
2023-01-29T03:53:40.856Z,1028.64
2023-01-29T03:54:41.642Z,1028.68
2023-01-29T03:55:41.008Z,1028.66
2023-01-29T03:56:41.286Z,1028.71
2023-01-29T03:57:40.695Z,1028.69
2023-01-29T03:58:40.928Z,1028.68
2023-01-29T03:59:41.268Z,1028.64
2023-01-29T04:00:41.543Z,1028.64
2023-01-29T04:01:59.883Z,1028.58
2023-01-29T04:02:40.703Z,1028.60
2023-01-29T04:03:40.702Z,1028.59
2023-01-29T04:04:41.213Z,1028.59
2023-01-29T04:05:41.561Z,1028.51
2023-01-29T04:06:41.329Z,1028.58
2023-01-29T04:07:41.131Z,1028.60
2023-01-29T04:08:40.702Z,1028.58
2023-01-29T04:09:41.244Z,1028.59
2023-01-29T04:10:41.528Z,1028.64
2023-01-29T04:11:59.868Z,1028.62
2023-01-29T04:12:41.082Z,1028.62
2023-01-29T04:13:41.442Z,1028.65
2023-01-29T04:14:41.206Z,1028.60
2023-01-29T04:15:40.700Z,1028.59
2023-01-29T04:16:40.002Z,1028.57
2023-01-29T04:17:40.714Z,1028.55
2023-01-29T04:18:40.978Z,1028.51
2023-01-29T04:19:41.287Z,1028.46
2023-01-29T04:20:40.212Z,1028.47
2023-01-29T04:21:59.918Z,1028.47
2023-01-29T04:22:41.146Z,1028.43
2023-01-29T04:23:41.435Z,1028.49
2023-01-29T04:24:41.217Z,1028.44
2023-01-29T04:25:41.043Z,1028.43
2023-01-29T04:26:41.315Z,1028.38
2023-01-29T04:27:40.209Z,1028.37
2023-01-29T04:28:40.903Z,1028.42
2023-01-29T04:29:41.254Z,1028.43
2023-01-29T04:30:41.049Z,1028.41
2023-01-29T04:31:59.918Z,1028.41
2023-01-29T04:32:41.068Z,1028.38
2023-01-29T04:33:40.247Z,1028.35
2023-01-29T04:34:41.233Z,1028.36
2023-01-29T04:35:40.535Z,1028.37
2023-01-29T04:36:40.812Z,1028.28
2023-01-29T04:37:41.145Z,1028.30
2023-01-29T04:38:40.917Z,1028.33
2023-01-29T04:39:40.222Z,1028.36
2023-01-29T04:40:41.015Z,1028.35
2023-01-29T04:41:59.362Z,1028.36
2023-01-29T04:42:41.060Z,1028.35
2023-01-29T04:43:40.348Z,1028.36
2023-01-29T04:44:41.182Z,1028.32
2023-01-29T04:45:40.207Z,1028.29
2023-01-29T04:46:39.986Z,1028.32
2023-01-29T04:47:41.200Z,1028.27
2023-01-29T04:48:40.944Z,1028.26
2023-01-29T04:49:40.736Z,1028.25
2023-01-29T04:50:40.228Z,1028.21
2023-01-29T04:51:59.356Z,1028.26
2023-01-29T04:52:41.087Z,1028.20
2023-01-29T04:53:40.902Z,1028.27
2023-01-29T04:54:40.708Z,1028.26
2023-01-29T04:55:40.496Z,1028.28
2023-01-29T04:56:40.221Z,1028.27
2023-01-29T04:57:41.103Z,1028.24
2023-01-29T04:58:40.900Z,1028.23
2023-01-29T04:59:40.679Z,1028.22
2023-01-29T05:00:41.012Z,1028.26
2023-01-29T05:01:59.351Z,1028.21
2023-01-29T05:02:41.088Z,1028.20
2023-01-29T05:03:40.954Z,1028.22
2023-01-29T05:04:40.249Z,1028.12
2023-01-29T05:05:40.575Z,1028.09
2023-01-29T05:06:40.860Z,1028.08
2023-01-29T05:07:39.729Z,1028.03
2023-01-29T05:08:40.984Z,1028.03
2023-01-29T05:09:40.769Z,1028.01
2023-01-29T05:10:40.555Z,1028.02
2023-01-29T05:11:59.378Z,1028.00
2023-01-29T05:12:40.601Z,1027.97
2023-01-29T05:13:39.739Z,1027.94
2023-01-29T05:14:40.696Z,1027.95
2023-01-29T05:15:39.988Z,1027.95
2023-01-29T05:16:40.767Z,1027.94
2023-01-29T05:17:40.544Z,1027.86
2023-01-29T05:18:39.732Z,1027.87
2023-01-29T05:19:40.750Z,1027.85
2023-01-29T05:20:40.086Z,1027.83
2023-01-29T05:21:59.409Z,1027.83
2023-01-29T05:22:40.633Z,1027.81
2023-01-29T05:23:39.917Z,1027.82
2023-01-29T05:24:39.739Z,1027.78
2023-01-29T05:25:39.739Z,1027.78
2023-01-29T05:26:40.354Z,1027.79
2023-01-29T05:27:40.642Z,1027.84
2023-01-29T05:28:40.430Z,1027.89
2023-01-29T05:29:39.752Z,1027.95
2023-01-29T05:30:39.770Z,1027.90
2023-01-29T05:31:59.371Z,1027.87
2023-01-29T05:32:40.574Z,1027.90
2023-01-29T05:33:40.340Z,1027.93
2023-01-29T05:34:40.741Z,1027.96
2023-01-29T05:35:39.748Z,1027.94
2023-01-29T05:36:39.573Z,1027.96
2023-01-29T05:37:40.626Z,1027.91
2023-01-29T05:38:39.018Z,1027.88
2023-01-29T05:39:40.225Z,1027.81
2023-01-29T05:40:40.572Z,1027.84
2023-01-29T05:41:58.887Z,1027.82
2023-01-29T05:42:40.610Z,1027.83
2023-01-29T05:43:40.391Z,1027.76
2023-01-29T05:44:40.181Z,1027.69
2023-01-29T05:45:40.461Z,1027.70
2023-01-29T05:46:40.322Z,1027.74
2023-01-29T05:47:39.763Z,1027.77
2023-01-29T05:48:39.907Z,1027.81
2023-01-29T05:49:40.182Z,1027.80
2023-01-29T05:50:40.635Z,1027.77
2023-01-29T05:51:58.944Z,1027.76
2023-01-29T05:52:38.763Z,1027.80
2023-01-29T05:53:39.761Z,1027.80
2023-01-29T05:54:40.249Z,1027.79
2023-01-29T05:55:40.531Z,1027.82
2023-01-29T05:56:40.323Z,1027.84
2023-01-29T05:57:39.333Z,1027.89
2023-01-29T05:58:39.265Z,1027.83
2023-01-29T05:59:39.280Z,1027.84
2023-01-29T06:00:40.474Z,1027.85
2023-01-29T06:01:58.872Z,1027.90
2023-01-29T06:02:40.187Z,1027.87
2023-01-29T06:03:40.343Z,1027.91
2023-01-29T06:04:40.127Z,1027.93
2023-01-29T06:05:39.305Z,1027.98
2023-01-29T06:06:39.859Z,1028.00
2023-01-29T06:07:41.743Z,1028.01
2023-01-29T06:08:39.596Z,1028.03
2023-01-29T06:09:40.148Z,1028.01
2023-01-29T06:10:39.940Z,1027.98
2023-01-29T06:11:58.760Z,1028.04
2023-01-29T06:12:39.956Z,1028.03
2023-01-29T06:13:40.262Z,1028.02
2023-01-29T06:14:40.058Z,1028.03
2023-01-29T06:15:39.844Z,1028.05
2023-01-29T06:16:40.113Z,1028.04
2023-01-29T06:17:39.284Z,1028.04
2023-01-29T06:18:40.221Z,1028.08
2023-01-29T06:19:39.995Z,1028.08
2023-01-29T06:20:40.280Z,1028.11
2023-01-29T06:21:58.612Z,1028.15
2023-01-29T06:22:39.911Z,1028.15
2023-01-29T06:23:39.293Z,1028.21
2023-01-29T06:24:39.969Z,1028.20
2023-01-29T06:25:40.278Z,1028.19
2023-01-29T06:26:40.082Z,1028.16
2023-01-29T06:27:39.875Z,1028.20
2023-01-29T06:28:39.292Z,1028.21
2023-01-29T06:29:39.960Z,1028.23
2023-01-29T06:30:39.769Z,1028.22
2023-01-29T06:31:58.674Z,1028.21
2023-01-29T06:32:39.855Z,1028.16
2023-01-29T06:33:40.099Z,1028.16
2023-01-29T06:34:39.294Z,1028.15
2023-01-29T06:35:39.704Z,1028.23
2023-01-29T06:36:39.980Z,1028.25
2023-01-29T06:37:39.845Z,1028.19
2023-01-29T06:38:40.125Z,1028.18
2023-01-29T06:39:39.130Z,1028.14
2023-01-29T06:40:39.719Z,1028.10
2023-01-29T06:41:58.560Z,1028.02
2023-01-29T06:42:39.766Z,1027.95
2023-01-29T06:43:39.556Z,1027.85
2023-01-29T06:44:39.849Z,1027.84
2023-01-29T06:45:38.292Z,1027.73
2023-01-29T06:46:39.937Z,1027.80
2023-01-29T06:47:39.726Z,1027.67
2023-01-29T06:48:40.035Z,1027.64
2023-01-29T06:49:39.803Z,1027.68
2023-01-29T06:50:39.610Z,1027.65
2023-01-29T06:51:58.435Z,1027.68
2023-01-29T06:52:39.804Z,1027.65
2023-01-29T06:53:39.022Z,1027.63
2023-01-29T06:54:39.023Z,1027.64
2023-01-29T06:55:39.092Z,1027.69
2023-01-29T06:56:39.900Z,1027.68
2023-01-29T06:57:38.798Z,1027.73
2023-01-29T06:58:39.511Z,1027.75
2023-01-29T06:59:39.780Z,1027.81
2023-01-29T07:00:39.605Z,1027.85
2023-01-29T07:01:58.422Z,1027.82
2023-01-29T07:02:39.623Z,1027.78
2023-01-29T07:03:38.809Z,1027.76
2023-01-29T07:04:39.711Z,1027.73
2023-01-29T07:05:39.484Z,1027.71
2023-01-29T07:06:39.769Z,1027.68
2023-01-29T07:07:38.780Z,1027.61
2023-01-29T07:08:38.811Z,1027.58
2023-01-29T07:09:38.806Z,1027.55
2023-01-29T07:10:39.543Z,1027.52
2023-01-29T07:11:59.922Z,1027.54
2023-01-29T07:12:39.741Z,1027.52
2023-01-29T07:13:39.553Z,1027.60
2023-01-29T07:14:38.800Z,1027.54
2023-01-29T07:15:38.803Z,1027.59
2023-01-29T07:16:39.519Z,1027.60
2023-01-29T07:17:39.272Z,1027.59
2023-01-29T07:18:39.059Z,1027.60
2023-01-29T07:19:39.319Z,1027.63
2023-01-29T07:20:38.813Z,1027.62
2023-01-29T07:21:57.956Z,1027.59
2023-01-29T07:22:39.679Z,1027.58
2023-01-29T07:23:39.474Z,1027.60
2023-01-29T07:24:39.347Z,1027.58
2023-01-29T07:25:39.628Z,1027.62
2023-01-29T07:26:39.408Z,1027.57
2023-01-29T07:27:38.832Z,1027.55
2023-01-29T07:28:39.514Z,1027.53
2023-01-29T07:29:39.262Z,1027.54
2023-01-29T07:30:39.572Z,1027.57
2023-01-29T07:31:58.001Z,1027.58
2023-01-29T07:32:38.312Z,1027.61
2023-01-29T07:33:38.843Z,1027.59
2023-01-29T07:34:39.222Z,1027.64
2023-01-29T07:35:39.510Z,1027.66
2023-01-29T07:36:39.306Z,1027.67
2023-01-29T07:37:38.589Z,1027.69
2023-01-29T07:38:38.320Z,1027.66
2023-01-29T07:39:38.378Z,1027.68
2023-01-29T07:40:38.585Z,1027.70
2023-01-29T07:41:57.885Z,1027.70
2023-01-29T07:42:39.106Z,1027.68
2023-01-29T07:43:37.933Z,1027.62
2023-01-29T07:44:39.167Z,1027.66
2023-01-29T07:45:38.358Z,1027.65
2023-01-29T07:46:39.278Z,1027.65
2023-01-29T07:47:39.046Z,1027.62
2023-01-29T07:48:39.365Z,1027.59
2023-01-29T07:49:39.126Z,1027.55
2023-01-29T07:50:39.407Z,1027.52
2023-01-29T07:51:57.737Z,1027.43
2023-01-29T07:52:38.955Z,1027.45
2023-01-29T07:53:38.458Z,1027.42
2023-01-29T07:54:37.787Z,1027.43
2023-01-29T07:55:37.496Z,1027.49
2023-01-29T07:56:37.738Z,1027.41
2023-01-29T07:57:37.509Z,1027.42
2023-01-29T07:58:37.751Z,1027.42
2023-01-29T07:59:37.515Z,1027.41
2023-01-29T08:00:37.768Z,1027.47
2023-01-29T08:01:57.515Z,1027.43
2023-01-29T08:02:37.840Z,1027.49
2023-01-29T08:03:37.509Z,1027.51
2023-01-29T08:04:38.756Z,1027.51
2023-01-29T08:05:37.525Z,1027.48
2023-01-29T08:06:37.788Z,1027.45
2023-01-29T08:07:37.541Z,1027.47
2023-01-29T08:08:37.823Z,1027.51
2023-01-29T08:09:37.579Z,1027.54
2023-01-29T08:10:37.375Z,1027.50
2023-01-29T08:11:57.599Z,1027.48
2023-01-29T08:12:37.352Z,1027.47
2023-01-29T08:13:37.596Z,1027.44
2023-01-29T08:14:37.371Z,1027.46
2023-01-29T08:15:39.165Z,1027.45
2023-01-29T08:16:37.383Z,1027.45
2023-01-29T08:17:52.505Z,1027.47
2023-01-29T08:18:38.388Z,1027.50
2023-01-29T08:19:37.631Z,1027.45
2023-01-29T08:20:37.411Z,1027.42
2023-01-29T08:21:57.681Z,1027.49
2023-01-29T08:22:37.434Z,1027.48
2023-01-29T08:23:37.166Z,1027.54
2023-01-29T08:24:53.203Z,1027.54
2023-01-29T08:25:38.326Z,1027.51
2023-01-29T08:26:37.479Z,1027.41
2023-01-29T08:27:37.211Z,1027.39
2023-01-29T08:28:37.490Z,1027.39
2023-01-29T08:29:37.213Z,1027.45
2023-01-29T08:30:37.496Z,1027.45
2023-01-29T08:31:57.313Z,1027.49
2023-01-29T08:32:37.481Z,1027.51
2023-01-29T08:33:39.302Z,1027.50
2023-01-29T08:34:37.492Z,1027.58
2023-01-29T08:35:37.258Z,1027.54
2023-01-29T08:36:37.521Z,1027.52
2023-01-29T08:37:37.261Z,1027.49
2023-01-29T08:38:37.021Z,1027.50
2023-01-29T08:39:37.262Z,1027.47
2023-01-29T08:40:37.032Z,1027.45
2023-01-29T08:41:57.273Z,1027.46
2023-01-29T08:42:38.467Z,1027.47
2023-01-29T08:43:37.377Z,1027.51
2023-01-29T08:44:37.038Z,1027.44
2023-01-29T08:45:37.340Z,1027.36
2023-01-29T08:46:37.059Z,1027.39
2023-01-29T08:47:37.316Z,1027.39
2023-01-29T08:48:37.071Z,1027.41
2023-01-29T08:49:37.313Z,1027.38
2023-01-29T08:50:37.068Z,1027.38
2023-01-29T08:51:58.812Z,1027.40
2023-01-29T08:52:37.091Z,1027.36
2023-01-29T08:53:37.383Z,1027.38
2023-01-29T08:54:37.155Z,1027.31
2023-01-29T08:55:36.918Z,1027.33
2023-01-29T08:56:37.167Z,1027.26
2023-01-29T08:57:36.941Z,1027.25
2023-01-29T08:58:37.183Z,1027.20
2023-01-29T08:59:36.954Z,1027.21
2023-01-29T09:00:37.196Z,1027.28
2023-01-29T09:01:56.974Z,1027.26
2023-01-29T09:02:37.243Z,1027.25
2023-01-29T09:03:36.994Z,1027.28
2023-01-29T09:04:36.754Z,1027.26
2023-01-29T09:05:37.025Z,1027.27
2023-01-29T09:06:36.782Z,1027.26
2023-01-29T09:07:37.046Z,1027.21
2023-01-29T09:08:36.800Z,1027.26
2023-01-29T09:09:37.049Z,1027.25
2023-01-29T09:10:36.824Z,1027.32
2023-01-29T09:11:57.073Z,1027.33
2023-01-29T09:12:36.802Z,1027.29
2023-01-29T09:13:37.086Z,1027.33
2023-01-29T09:14:36.843Z,1027.34
2023-01-29T09:15:37.117Z,1027.34
2023-01-29T09:16:36.892Z,1027.34
2023-01-29T09:17:36.783Z,1027.32
2023-01-29T09:18:36.915Z,1027.35
2023-01-29T09:19:36.683Z,1027.29
2023-01-29T09:20:36.925Z,1027.24
2023-01-29T09:21:58.196Z,1027.30
2023-01-29T09:22:36.979Z,1027.34
2023-01-29T09:23:36.805Z,1027.31
2023-01-29T09:24:36.998Z,1027.24
2023-01-29T09:25:36.823Z,1027.25
2023-01-29T09:26:36.589Z,1027.23
2023-01-29T09:27:38.282Z,1027.23
2023-01-29T09:28:38.121Z,1027.24
2023-01-29T09:29:37.936Z,1027.21
2023-01-29T09:30:38.382Z,1027.20
2023-01-29T09:31:57.183Z,1027.18
2023-01-29T09:32:52.725Z,1027.16
2023-01-29T09:33:38.541Z,1027.20
2023-01-29T09:34:36.889Z,1027.19
2023-01-29T09:35:37.355Z,1027.18
2023-01-29T09:36:37.901Z,1027.19
2023-01-29T09:37:37.391Z,1027.21
2023-01-29T09:38:37.956Z,1027.20
2023-01-29T09:39:38.261Z,1027.12
2023-01-29T09:40:38.113Z,1027.12
2023-01-29T09:41:56.936Z,1027.12
2023-01-29T09:42:37.647Z,1027.12
2023-01-29T09:43:37.500Z,1027.16
2023-01-29T09:44:36.866Z,1027.08
2023-01-29T09:45:38.038Z,1027.08
2023-01-29T09:46:37.815Z,1027.09
2023-01-29T09:47:38.129Z,1027.08
2023-01-29T09:48:37.146Z,1027.08
2023-01-29T09:49:38.172Z,1027.07
2023-01-29T09:50:38.009Z,1027.08
2023-01-29T09:51:56.863Z,1027.08
2023-01-29T09:52:38.065Z,1027.09
2023-01-29T09:53:37.818Z,1027.08
2023-01-29T09:54:38.115Z,1027.01
2023-01-29T09:55:37.863Z,1027.01
2023-01-29T09:56:38.203Z,1027.05
2023-01-29T09:57:35.742Z,1027.04
2023-01-29T09:58:35.726Z,1027.03
2023-01-29T09:59:36.555Z,1027.00
2023-01-29T10:00:37.681Z,1027.00
2023-01-29T10:01:58.106Z,1027.02
2023-01-29T10:02:36.383Z,1027.04
2023-01-29T10:03:36.654Z,1027.04
2023-01-29T10:04:36.419Z,1027.06
2023-01-29T10:05:36.699Z,1027.07
2023-01-29T10:06:37.904Z,1027.06
2023-01-29T10:07:36.188Z,1027.07
2023-01-29T10:08:36.415Z,1027.11
2023-01-29T10:09:36.183Z,1027.07
2023-01-29T10:10:36.435Z,1027.08
2023-01-29T10:11:58.440Z,1027.06
2023-01-29T10:12:36.529Z,1027.07
2023-01-29T10:13:36.339Z,1027.01
2023-01-29T10:14:36.098Z,1027.05
2023-01-29T10:15:36.363Z,1027.05
2023-01-29T10:16:36.113Z,1027.06
2023-01-29T10:17:39.334Z,1027.06
2023-01-29T10:18:36.169Z,1027.08
2023-01-29T10:19:36.394Z,1027.10
2023-01-29T10:20:36.164Z,1027.12
2023-01-29T10:21:56.961Z,1027.11
2023-01-29T10:22:36.207Z,1027.10
2023-01-29T10:23:36.443Z,1027.07
2023-01-29T10:24:37.672Z,1027.11
2023-01-29T10:25:36.056Z,1027.09
2023-01-29T10:26:36.305Z,1027.10
2023-01-29T10:27:37.441Z,1027.14
2023-01-29T10:28:36.368Z,1027.12
2023-01-29T10:29:36.059Z,1027.12
2023-01-29T10:30:36.317Z,1027.11
2023-01-29T10:31:57.701Z,1027.16
2023-01-29T10:32:36.387Z,1027.16
2023-01-29T10:33:49.005Z,1027.15
2023-01-29T10:34:37.407Z,1027.09
2023-01-29T10:35:36.133Z,1027.13
2023-01-29T10:36:35.918Z,1027.13
2023-01-29T10:37:36.157Z,1027.04
2023-01-29T10:38:35.959Z,1027.05
2023-01-29T10:39:36.209Z,1027.02
2023-01-29T10:40:35.951Z,1026.97
2023-01-29T10:41:57.687Z,1026.93
2023-01-29T10:42:36.002Z,1026.96
2023-01-29T10:43:36.240Z,1026.99
2023-01-29T10:44:36.017Z,1027.01
2023-01-29T10:45:36.248Z,1026.99
2023-01-29T10:46:36.010Z,1026.95
2023-01-29T10:47:35.832Z,1026.97
2023-01-29T10:48:36.009Z,1026.95
2023-01-29T10:49:35.795Z,1026.92
2023-01-29T10:50:36.047Z,1026.88
2023-01-29T10:51:56.846Z,1026.91
2023-01-29T10:52:36.117Z,1026.89
2023-01-29T10:53:35.892Z,1026.88
2023-01-29T10:54:36.121Z,1026.87
2023-01-29T10:55:36.095Z,1026.87
2023-01-29T10:56:36.135Z,1026.88
2023-01-29T10:57:35.920Z,1026.82
2023-01-29T10:58:35.661Z,1026.77
2023-01-29T10:59:35.929Z,1026.77
2023-01-29T11:00:35.669Z,1026.76
2023-01-29T11:01:57.503Z,1026.76
2023-01-29T11:02:35.766Z,1026.74
2023-01-29T11:03:36.029Z,1026.71
2023-01-29T11:04:35.727Z,1026.68
2023-01-29T11:05:36.005Z,1026.67
2023-01-29T11:06:35.773Z,1026.69
2023-01-29T11:07:36.039Z,1026.70
2023-01-29T11:08:35.796Z,1026.69
2023-01-29T11:09:36.055Z,1026.66
2023-01-29T11:10:36.789Z,1026.65
2023-01-29T11:11:57.556Z,1026.65
2023-01-29T11:12:35.847Z,1026.58
2023-01-29T11:13:35.627Z,1026.63
2023-01-29T11:14:35.865Z,1026.57
2023-01-29T11:15:35.630Z,1026.55
2023-01-29T11:16:35.884Z,1026.58
2023-01-29T11:17:35.664Z,1026.54
2023-01-29T11:18:35.885Z,1026.56
2023-01-29T11:19:35.652Z,1026.54
2023-01-29T11:20:35.902Z,1026.52
2023-01-29T11:21:56.428Z,1026.46
2023-01-29T11:22:35.493Z,1026.45
2023-01-29T11:23:35.777Z,1026.41
2023-01-29T11:24:35.521Z,1026.41
2023-01-29T11:25:35.793Z,1026.38
2023-01-29T11:26:35.574Z,1026.41
2023-01-29T11:27:34.883Z,1026.38
2023-01-29T11:28:34.838Z,1026.40
2023-01-29T11:29:35.606Z,1026.42
2023-01-29T11:30:34.888Z,1026.37
2023-01-29T11:31:57.241Z,1026.37
2023-01-29T11:32:35.503Z,1026.34
2023-01-29T11:33:35.799Z,1026.31
2023-01-29T11:34:34.798Z,1026.27
2023-01-29T11:35:35.540Z,1026.23
2023-01-29T11:36:35.282Z,1026.25
2023-01-29T11:37:36.421Z,1026.22
2023-01-29T11:38:37.175Z,1026.22
2023-01-29T11:39:35.919Z,1026.16
2023-01-29T11:40:36.732Z,1026.15
2023-01-29T11:41:56.989Z,1026.10
2023-01-29T11:42:35.247Z,1026.12
2023-01-29T11:43:35.507Z,1026.06
2023-01-29T11:44:35.235Z,1026.04
2023-01-29T11:45:35.516Z,1026.05
2023-01-29T11:46:35.276Z,1026.02
2023-01-29T11:47:35.521Z,1025.99
2023-01-29T11:48:35.269Z,1025.99
2023-01-29T11:49:35.535Z,1025.93
2023-01-29T11:50:35.257Z,1025.87
2023-01-29T11:51:55.551Z,1025.82
2023-01-29T11:52:35.279Z,1025.79
2023-01-29T11:53:36.531Z,1025.67
2023-01-29T11:54:35.284Z,1025.64
2023-01-29T11:55:49.739Z,1025.61
2023-01-29T11:56:36.288Z,1025.57
2023-01-29T11:57:35.556Z,1025.58
2023-01-29T11:58:35.284Z,1025.52
2023-01-29T11:59:35.053Z,1025.50
2023-01-29T12:00:35.303Z,1025.44
2023-01-29T12:01:55.570Z,1025.47
2023-01-29T12:02:35.320Z,1025.45
2023-01-29T12:03:35.132Z,1025.43
2023-01-29T12:04:35.317Z,1025.40
2023-01-29T12:05:35.120Z,1025.40